Time;durP1;ratioP1;P1;durP2;ratioP2;P2;SDS_P1;SDS_P2;PMS_P1;PMS_P2;Temp;Humidity;BMP_temperature;BMP_pressure;BME280_temperature;BME280_humidity;BME280_pressure;Samples;Min_cycle;Max_cycle;Signal;HPM_P1;HPM_P2
2023/09/03 00:01:00;;;;;;;1.30;1.20;;;17.10;99.90;;;;;;4188956;28;20138;-60
2023/09/03 00:03:20;;;;;;;2.13;1.38;;;17.10;99.90;;;;;;4189176;28;20409;-60
2023/09/03 00:05:51;;;;;;;1.25;1.20;;;17.20;99.90;;;;;;4189752;28;20083;-59
2023/09/03 00:08:11;;;;;;;2.13;1.50;;;17.10;99.90;;;;;;4189243;28;20051;-60
2023/09/03 00:10:34;;;;;;;1.23;1.23;;;17.10;99.90;;;;;;4189751;28;20240;-59
2023/09/03 00:12:54;;;;;;;1.30;1.30;;;17.00;99.90;;;;;;4189694;28;20043;-60
2023/09/03 00:15:14;;;;;;;1.45;1.25;;;16.90;99.90;;;;;;4189592;28;20052;-60
2023/09/03 00:17:34;;;;;;;1.95;1.20;;;16.80;99.90;;;;;;4189787;28;20114;-60
2023/09/03 00:19:54;;;;;;;1.88;1.40;;;16.70;99.90;;;;;;4189545;28;20462;-59
2023/09/03 00:22:14;;;;;;;1.77;1.50;;;16.50;99.90;;;;;;4187164;28;20110;-59
2023/09/03 00:24:34;;;;;;;1.58;1.48;;;16.30;99.90;;;;;;4189608;28;20112;-59
2023/09/03 00:26:54;;;;;;;1.58;1.40;;;16.20;99.90;;;;;;4189806;28;20044;-59
2023/09/03 00:29:14;;;;;;;1.85;1.40;;;16.10;99.90;;;;;;4188715;28;20095;-59
2023/09/03 00:31:34;;;;;;;1.80;1.77;;;15.90;99.90;;;;;;4189466;28;20036;-59
2023/09/03 00:33:54;;;;;;;3.05;1.70;;;16.00;99.90;;;;;;4188793;28;20064;-59
2023/09/03 00:36:15;;;;;;;1.48;1.38;;;16.20;99.90;;;;;;4189314;28;20048;-60
2023/09/03 00:38:35;;;;;;;1.42;1.35;;;16.30;99.90;;;;;;4189342;28;20086;-60
2023/09/03 00:40:55;;;;;;;2.65;1.55;;;16.30;99.90;;;;;;4189077;28;20379;-60
2023/09/03 00:43:15;;;;;;;1.73;1.25;;;16.00;99.90;;;;;;4189446;28;20402;-59
2023/09/03 00:45:35;;;;;;;2.95;1.60;;;15.90;99.90;;;;;;4189298;28;20063;-59
2023/09/03 00:47:55;;;;;;;2.88;1.42;;;15.70;99.90;;;;;;4189042;28;20051;-59
2023/09/03 00:50:15;;;;;;;1.73;1.63;;;15.70;99.90;;;;;;4189170;28;20060;-59
2023/09/03 00:52:36;;;;;;;2.00;1.92;;;15.70;99.90;;;;;;4189141;28;20059;-59
2023/09/03 00:54:57;;;;;;;2.08;1.95;;;15.70;99.90;;;;;;4188509;28;20047;-59
2023/09/03 00:57:17;;;;;;;1.90;1.90;;;15.70;99.90;;;;;;4188391;28;20067;-60
2023/09/03 00:59:39;;;;;;;1.50;1.40;;;15.70;99.90;;;;;;4189043;28;20095;-59
2023/09/03 01:01:59;;;;;;;2.55;1.50;;;15.60;99.90;;;;;;4188738;28;20079;-59
2023/09/03 01:04:19;;;;;;;1.50;1.50;;;15.60;99.90;;;;;;4206319;22;20094;-58
2023/09/03 01:06:39;;;;;;;2.15;1.73;;;15.60;99.90;;;;;;4193551;28;20100;-58
2023/09/03 01:08:58;;;;;;;1.35;1.25;;;15.60;99.90;;;;;;4187995;28;20082;-58
2023/09/03 01:11:30;;;;;;;2.13;2.00;;;15.80;99.90;;;;;;4185385;28;20365;-58
2023/09/03 01:14:08;;;;;;;1.95;1.77;;;16.00;99.90;;;;;;4192264;28;20048;-58
2023/09/03 01:16:38;;;;;;;1.63;1.52;;;16.00;99.90;;;;;;4194217;28;20083;-58
2023/09/03 01:19:04;;;;;;;4.45;1.48;;;15.90;99.90;;;;;;4196441;28;20458;-59
2023/09/03 01:21:48;;;;;;;2.75;1.67;;;15.80;99.90;;;;;;4194769;28;20320;-58
2023/09/03 01:24:34;;;;;;;1.45;1.40;;;15.80;99.90;;;;;;4188874;28;20408;-58
2023/09/03 01:27:26;;;;;;;1.80;1.70;;;15.80;99.90;;;;;;4193777;28;20052;-58
2023/09/03 01:29:46;;;;;;;2.75;2.20;;;15.70;99.90;;;;;;4192142;28;20051;-59
2023/09/03 01:32:09;;;;;;;1.83;1.73;;;15.70;99.90;;;;;;4194403;28;20044;-58
2023/09/03 01:34:30;;;;;;;4.25;1.90;;;15.80;99.90;;;;;;4185973;28;20086;-58
2023/09/03 01:36:51;;;;;;;1.83;1.73;;;15.70;99.90;;;;;;4188019;28;20067;-58
2023/09/03 01:39:11;;;;;;;1.73;1.63;;;15.80;99.90;;;;;;4192789;28;20051;-58
2023/09/03 01:41:33;;;;;;;1.90;1.80;;;15.80;99.90;;;;;;4182013;28;20037;-58
2023/09/03 01:43:53;;;;;;;2.53;2.15;;;15.60;99.90;;;;;;4181712;28;20409;-58
2023/09/03 01:46:37;;;;;;;1.90;1.80;;;15.60;99.90;;;;;;4176254;28;20056;-58
2023/09/03 01:49:16;;;;;;;1.70;1.40;;;15.80;99.90;;;;;;4179724;28;20084;-58
2023/09/03 01:52:01;;;;;;;2.05;1.83;;;16.00;99.90;;;;;;4180072;28;20053;-58
2023/09/03 01:54:22;;;;;;;1.80;1.80;;;15.90;99.90;;;;;;4176974;28;20243;-58
2023/09/03 01:56:46;;;;;;;1.50;1.50;;;15.80;99.90;;;;;;4177329;28;20068;-58
2023/09/03 01:59:19;;;;;;;1.88;1.83;;;15.60;99.90;;;;;;4179605;28;20079;-58
2023/09/03 02:01:40;;;;;;;4.30;1.77;;;15.60;99.90;;;;;;4176920;28;20072;-58
2023/09/03 02:04:01;;;;;;;4.63;2.00;;;15.60;99.90;;;;;;4180357;28;20109;-58
2023/09/03 02:06:20;;;;;;;2.08;1.65;;;15.50;99.90;;;;;;4176059;28;20076;-58
2023/09/03 02:08:40;;;;;;;1.60;1.50;;;15.30;99.90;;;;;;4178552;28;20371;-58
2023/09/03 02:11:00;;;;;;;1.98;1.83;;;15.20;99.90;;;;;;4179885;28;20112;-58
2023/09/03 02:13:20;;;;;;;2.05;1.95;;;15.10;99.90;;;;;;4174967;28;20049;-58
2023/09/03 02:15:40;;;;;;;3.53;2.00;;;15.10;99.90;;;;;;4178587;28;20057;-58
2023/09/03 02:18:00;;;;;;;1.95;1.58;;;15.00;99.90;;;;;;4181389;28;20371;-58
2023/09/03 02:20:20;;;;;;;2.28;1.65;;;14.90;99.90;;;;;;4177793;28;20367;-58
2023/09/03 02:22:40;;;;;;;1.98;1.88;;;14.90;99.90;;;;;;4176285;28;20359;-58
2023/09/03 02:25:00;;;;;;;2.33;2.22;;;15.00;99.90;;;;;;4181301;28;20083;-58
2023/09/03 02:27:20;;;;;;;2.03;1.92;;;15.10;99.90;;;;;;4178863;28;20040;-58
2023/09/03 02:29:41;;;;;;;4.97;3.08;;;15.20;99.90;;;;;;4183189;28;20060;-58
2023/09/03 02:32:01;;;;;;;2.40;2.10;;;15.30;99.90;;;;;;4184669;28;20044;-58
2023/09/03 02:34:21;;;;;;;2.13;2.03;;;15.30;99.90;;;;;;4181679;28;20232;-58
2023/09/03 02:36:41;;;;;;;1.92;1.83;;;15.30;99.90;;;;;;4181763;28;20036;-58
2023/09/03 02:39:03;;;;;;;1.85;1.50;;;15.30;99.90;;;;;;4185541;28;20099;-58
2023/09/03 02:41:23;;;;;;;8.45;2.78;;;15.30;99.90;;;;;;4183546;28;20054;-58
2023/09/03 02:43:42;;;;;;;1.85;1.77;;;15.30;99.90;;;;;;4182679;28;20047;-58
2023/09/03 02:46:03;;;;;;;2.50;2.40;;;15.20;99.90;;;;;;4177106;28;20092;-59
2023/09/03 02:48:23;;;;;;;2.17;2.17;;;15.20;99.90;;;;;;4182775;28;20078;-58
2023/09/03 02:50:43;;;;;;;1.98;1.98;;;15.20;99.90;;;;;;4181136;28;20087;-58
2023/09/03 02:53:05;;;;;;;1.63;1.52;;;15.10;99.90;;;;;;4180097;28;20438;-58
2023/09/03 02:55:25;;;;;;;5.95;2.60;;;15.10;99.90;;;;;;4181956;28;20052;-58
2023/09/03 02:57:45;;;;;;;2.10;1.98;;;14.90;99.90;;;;;;4179242;28;20048;-58
2023/09/03 03:00:06;;;;;;;2.13;2.03;;;14.80;99.90;;;;;;4179496;28;20366;-58
2023/09/03 03:02:25;;;;;;;3.15;2.45;;;14.70;99.90;;;;;;4176313;28;20247;-58
2023/09/03 03:04:46;;;;;;;1.75;1.63;;;14.70;99.90;;;;;;4183318;28;20140;-58
2023/09/03 03:07:05;;;;;;;4.20;1.52;;;14.60;99.90;;;;;;4178144;28;20079;-58
2023/09/03 03:09:25;;;;;;;2.00;1.90;;;14.70;99.90;;;;;;4180100;28;20079;-58
2023/09/03 03:11:46;;;;;;;1.58;1.55;;;14.80;99.90;;;;;;4180813;28;20109;-58
2023/09/03 03:14:06;;;;;;;2.08;1.70;;;14.90;99.90;;;;;;4181040;28;20087;-58
2023/09/03 03:16:27;;;;;;;2.28;1.85;;;14.90;99.90;;;;;;4179772;28;20096;-58
2023/09/03 03:18:47;;;;;;;2.13;2.00;;;14.90;99.90;;;;;;4177698;28;20232;-58
2023/09/03 03:21:09;;;;;;;2.22;2.03;;;14.90;99.90;;;;;;4181942;28;20084;-58
2023/09/03 03:23:28;;;;;;;2.05;1.95;;;14.90;99.90;;;;;;4182187;28;20052;-57
2023/09/03 03:25:52;;;;;;;1.95;1.85;;;14.80;99.90;;;;;;4177811;28;20112;-58
2023/09/03 03:28:13;;;;;;;2.85;2.63;;;14.80;99.90;;;;;;4184090;28;20366;-58
2023/09/03 03:30:32;;;;;;;2.97;2.78;;;14.90;99.90;;;;;;4177784;28;20044;-57
2023/09/03 03:32:52;;;;;;;1.92;1.83;;;14.80;99.90;;;;;;4178494;28;20232;-57
2023/09/03 03:35:12;;;;;;;4.07;3.42;;;14.80;99.90;;;;;;4179857;28;20371;-57
2023/09/03 03:37:32;;;;;;;1.80;1.80;;;14.80;99.90;;;;;;4181181;28;20075;-57
2023/09/03 03:39:52;;;;;;;2.65;2.45;;;14.90;99.90;;;;;;4180102;28;20073;-57
2023/09/03 03:42:12;;;;;;;1.83;1.83;;;14.80;99.90;;;;;;4175976;28;20409;-57
2023/09/03 03:44:32;;;;;;;2.95;2.75;;;14.80;99.90;;;;;;4180980;28;20047;-57
2023/09/03 03:46:52;;;;;;;2.28;1.85;;;14.80;99.90;;;;;;4178998;28;20119;-58
2023/09/03 03:49:11;;;;;;;3.00;2.13;;;14.70;99.90;;;;;;4175575;28;20052;-58
2023/09/03 03:51:31;;;;;;;2.90;2.00;;;14.70;99.90;;;;;;4179260;28;20109;-58
2023/09/03 03:53:51;;;;;;;7.03;2.53;;;14.70;99.90;;;;;;4181583;28;20053;-57
2023/09/03 03:56:12;;;;;;;2.25;1.92;;;14.70;99.90;;;;;;4177124;28;20044;-58
2023/09/03 03:58:36;;;;;;;3.03;2.47;;;14.70;99.90;;;;;;4181526;28;20363;-58
2023/09/03 04:00:56;;;;;;;2.03;2.03;;;14.70;99.90;;;;;;4178997;28;20156;-57
2023/09/03 04:03:16;;;;;;;2.85;2.55;;;14.60;99.90;;;;;;4175317;28;20083;-57
2023/09/03 04:05:37;;;;;;;2.20;2.03;;;14.40;99.90;;;;;;4176932;28;20310;-57
2023/09/03 04:07:57;;;;;;;2.80;2.00;;;14.50;99.90;;;;;;4180745;28;20513;-57
2023/09/03 04:10:16;;;;;;;1.88;1.88;;;14.50;99.90;;;;;;4183965;28;20051;-58
2023/09/03 04:12:36;;;;;;;1.63;1.63;;;14.70;99.90;;;;;;4177089;28;20044;-58
2023/09/03 04:14:57;;;;;;;2.20;2.10;;;14.60;99.90;;;;;;4181395;28;20049;-58
2023/09/03 04:17:17;;;;;;;2.28;2.17;;;14.40;99.90;;;;;;4183042;28;20378;-57
2023/09/03 04:19:38;;;;;;;2.28;1.98;;;14.40;99.90;;;;;;4179267;28;20065;-58
2023/09/03 04:21:59;;;;;;;2.72;2.03;;;14.30;99.90;;;;;;4178829;28;20040;-57
2023/09/03 04:24:19;;;;;;;3.75;2.13;;;14.20;99.90;;;;;;4179684;28;20052;-58
2023/09/03 04:26:39;;;;;;;2.92;2.83;;;14.20;99.90;;;;;;4177585;28;20111;-57
2023/09/03 04:28:59;;;;;;;2.47;2.28;;;14.20;99.90;;;;;;4176934;28;20236;-57
2023/09/03 04:31:19;;;;;;;2.85;2.75;;;14.20;99.90;;;;;;4183718;28;20048;-58
2023/09/03 04:33:39;;;;;;;2.08;1.90;;;14.10;99.90;;;;;;4180223;28;20056;-58
2023/09/03 04:36:01;;;;;;;2.30;2.20;;;14.20;99.90;;;;;;4181627;28;20047;-58
2023/09/03 04:38:21;;;;;;;2.38;2.03;;;14.20;99.90;;;;;;4180602;28;20051;-58
2023/09/03 04:40:44;;;;;;;2.20;2.10;;;14.30;99.90;;;;;;4173265;28;20292;-58
2023/09/03 04:43:06;;;;;;;3.17;1.75;;;14.20;99.90;;;;;;4176068;28;20056;-58
2023/09/03 04:45:25;;;;;;;2.33;2.22;;;14.40;99.90;;;;;;4181138;28;20119;-58
2023/09/03 04:47:45;;;;;;;3.45;2.40;;;14.50;99.90;;;;;;4181598;28;20105;-58
2023/09/03 04:50:06;;;;;;;2.40;2.30;;;14.60;99.90;;;;;;4180174;28;20079;-57
2023/09/03 04:52:26;;;;;;;2.13;1.92;;;14.70;99.90;;;;;;4175096;28;20044;-58
2023/09/03 04:54:46;;;;;;;3.08;2.30;;;14.60;99.90;;;;;;4182361;28;20056;-57
2023/09/03 04:57:07;;;;;;;3.10;1.73;;;14.70;99.90;;;;;;4184180;28;20048;-58
2023/09/03 04:59:27;;;;;;;2.83;2.28;;;14.60;99.90;;;;;;4181313;28;20108;-57
2023/09/03 05:01:47;;;;;;;2.85;2.45;;;14.70;99.90;;;;;;4177278;28;20044;-58
2023/09/03 05:04:07;;;;;;;2.58;2.38;;;14.70;99.90;;;;;;4175649;28;20398;-57
2023/09/03 05:06:27;;;;;;;2.00;1.90;;;14.70;99.90;;;;;;4180197;28;20236;-58
2023/09/03 05:08:48;;;;;;;3.25;3.05;;;14.80;99.90;;;;;;4176392;28;20048;-58
2023/09/03 05:11:11;;;;;;;3.17;2.97;;;14.70;99.90;;;;;;4178054;28;20308;-58
2023/09/03 05:13:31;;;;;;;2.10;1.92;;;14.60;99.90;;;;;;4180309;28;20140;-58
2023/09/03 05:15:51;;;;;;;2.95;2.63;;;14.70;99.90;;;;;;4176823;28;20094;-58
2023/09/03 05:18:11;;;;;;;4.28;1.67;;;14.60;99.90;;;;;;4179512;28;20068;-58
2023/09/03 05:20:32;;;;;;;9.45;2.58;;;14.50;99.90;;;;;;4176322;28;20362;-58
2023/09/03 05:22:51;;;;;;;2.33;2.22;;;14.50;99.90;;;;;;4178390;28;20083;-58
2023/09/03 05:25:11;;;;;;;1.73;1.73;;;14.40;99.90;;;;;;4183107;28;20086;-57
2023/09/03 05:27:32;;;;;;;3.25;2.97;;;14.50;99.90;;;;;;4182007;28;20056;-58
2023/09/03 05:29:52;;;;;;;2.38;2.28;;;14.60;99.90;;;;;;4178671;28;20052;-58
2023/09/03 05:32:11;;;;;;;2.25;2.15;;;14.70;99.90;;;;;;4178322;28;20052;-58
2023/09/03 05:34:31;;;;;;;2.30;2.10;;;14.60;99.90;;;;;;4179277;28;20103;-58
2023/09/03 05:36:52;;;;;;;3.55;1.65;;;14.40;99.90;;;;;;4180990;28;20040;-58
2023/09/03 05:39:12;;;;;;;2.40;2.30;;;14.40;99.90;;;;;;4177446;28;20332;-58
2023/09/03 05:41:32;;;;;;;2.78;2.67;;;14.50;99.90;;;;;;4185801;28;20071;-57
2023/09/03 05:43:53;;;;;;;3.63;1.88;;;14.70;99.90;;;;;;4176835;28;20048;-58
2023/09/03 05:46:13;;;;;;;2.25;2.15;;;14.80;99.90;;;;;;4183430;28;20106;-57
2023/09/03 05:48:33;;;;;;;2.03;2.03;;;14.80;99.90;;;;;;4181398;28;20047;-58
2023/09/03 05:51:03;;;;;;;2.58;2.42;;;14.90;99.90;;;;;;4177864;28;20048;-58
2023/09/03 05:53:24;;;;;;;2.03;2.03;;;14.80;99.90;;;;;;4179090;28;20040;-58
2023/09/03 05:55:44;;;;;;;2.35;2.25;;;14.80;99.90;;;;;;4179327;28;20099;-58
2023/09/03 05:58:04;;;;;;;2.58;2.38;;;14.70;99.90;;;;;;4180812;28;20048;-59
2023/09/03 06:00:24;;;;;;;2.95;2.85;;;14.70;99.90;;;;;;4180757;28;20055;-58
2023/09/03 06:02:43;;;;;;;2.67;2.58;;;14.70;99.90;;;;;;4182041;28;20057;-58
2023/09/03 06:05:04;;;;;;;3.10;2.90;;;14.80;99.90;;;;;;4185197;28;20048;-58
2023/09/03 06:07:24;;;;;;;2.58;2.10;;;14.80;99.90;;;;;;4183204;28;20304;-58
2023/09/03 06:09:45;;;;;;;2.20;2.10;;;14.90;99.90;;;;;;4187147;28;20232;-58
2023/09/03 06:12:05;;;;;;;2.58;2.38;;;15.00;99.90;;;;;;4184461;28;20128;-58
2023/09/03 06:14:24;;;;;;;2.92;2.72;;;15.00;99.90;;;;;;4179148;28;20312;-58
2023/09/03 06:16:44;;;;;;;3.10;2.90;;;15.10;99.90;;;;;;4181670;28;20079;-58
2023/09/03 06:19:04;;;;;;;2.13;1.92;;;15.20;99.90;;;;;;4182636;28;20048;-58
2023/09/03 06:21:26;;;;;;;5.18;3.22;;;15.30;99.90;;;;;;4177126;28;20037;-58
2023/09/03 06:23:46;;;;;;;3.83;2.20;;;15.40;99.90;;;;;;4183326;28;20235;-58
2023/09/03 06:26:06;;;;;;;3.08;1.80;;;15.60;99.90;;;;;;4181553;28;20313;-57
2023/09/03 06:28:28;;;;;;;2.97;1.95;;;15.90;99.90;;;;;;4181626;28;20048;-57
2023/09/03 06:30:47;;;;;;;1.80;1.77;;;16.00;99.90;;;;;;4184756;28;20371;-57
2023/09/03 06:33:09;;;;;;;2.00;1.80;;;16.20;99.90;;;;;;4178148;28;20047;-57
2023/09/03 06:35:29;;;;;;;3.03;1.75;;;16.30;99.90;;;;;;4183721;28;20088;-57
2023/09/03 06:37:49;;;;;;;1.95;1.85;;;16.50;99.90;;;;;;4176573;28;20059;-58
2023/09/03 06:40:13;;;;;;;2.08;1.88;;;16.60;99.90;;;;;;4182087;28;20067;-57
2023/09/03 06:42:33;;;;;;;1.52;1.40;;;16.90;99.90;;;;;;4187948;28;20075;-57
2023/09/03 06:44:53;;;;;;;4.00;2.60;;;17.10;99.90;;;;;;4180862;28;20087;-58
2023/09/03 06:47:13;;;;;;;2.03;1.92;;;17.10;99.90;;;;;;4182006;28;20048;-58
2023/09/03 06:49:33;;;;;;;3.42;1.88;;;17.30;99.90;;;;;;4183384;28;20374;-58
2023/09/03 06:51:53;;;;;;;2.15;1.42;;;17.50;99.90;;;;;;4183325;28;20047;-58
2023/09/03 06:54:13;;;;;;;2.25;1.40;;;17.70;99.90;;;;;;4179742;28;20090;-57
2023/09/03 06:56:33;;;;;;;1.60;1.50;;;17.90;99.90;;;;;;4182394;28;20040;-57
2023/09/03 06:58:53;;;;;;;2.15;2.05;;;18.20;99.90;;;;;;4182727;28;20053;-57
2023/09/03 07:01:14;;;;;;;1.58;1.48;;;18.40;99.90;;;;;;4176958;28;20390;-57
2023/09/03 07:03:34;;;;;;;1.70;1.60;;;18.60;99.90;;;;;;4183184;28;20043;-58
2023/09/03 07:05:54;;;;;;;1.27;1.17;;;18.80;99.90;;;;;;4175986;28;20047;-58
2023/09/03 07:08:15;;;;;;;1.60;1.35;;;19.10;99.90;;;;;;4178872;28;20128;-57
2023/09/03 07:10:35;;;;;;;2.88;1.50;;;19.40;99.90;;;;;;4180481;28;20263;-57
2023/09/03 07:12:55;;;;;;;1.27;1.27;;;19.70;99.90;;;;;;4180915;28;20051;-57
2023/09/03 07:15:15;;;;;;;1.45;1.23;;;20.00;99.90;;;;;;4180133;28;20078;-58
2023/09/03 07:17:35;;;;;;;1.45;1.27;;;20.30;99.90;;;;;;4178814;28;20044;-58
2023/09/03 07:19:55;;;;;;;5.07;1.73;;;20.40;99.90;;;;;;4177422;28;20116;-57
2023/09/03 07:22:15;;;;;;;1.00;1.00;;;20.60;99.90;;;;;;4178149;28;20116;-58
2023/09/03 07:24:35;;;;;;;1.05;1.05;;;20.80;99.90;;;;;;4177105;28;20049;-57
2023/09/03 07:26:55;;;;;;;2.00;1.10;;;21.10;99.90;;;;;;4181697;28;20239;-57
2023/09/03 07:29:16;;;;;;;1.10;1.10;;;21.40;99.90;;;;;;4182043;28;20378;-57
2023/09/03 07:31:40;;;;;;;1.20;1.10;;;21.50;99.90;;;;;;4182970;28;20105;-57
2023/09/03 07:34:01;;;;;;;3.08;1.30;;;21.80;99.90;;;;;;4178223;28;20067;-57
2023/09/03 07:36:22;;;;;;;0.95;0.95;;;22.00;99.90;;;;;;4180672;28;20072;-58
2023/09/03 07:38:41;;;;;;;1.10;1.00;;;22.20;99.90;;;;;;4178973;28;20103;-58
2023/09/03 07:41:02;;;;;;;1.02;1.00;;;22.50;99.90;;;;;;4180545;28;20044;-58
2023/09/03 07:43:22;;;;;;;0.90;0.90;;;22.90;99.90;;;;;;4174152;28;20049;-58
2023/09/03 07:45:44;;;;;;;0.95;0.90;;;23.30;99.90;;;;;;4177908;28;20108;-58
2023/09/03 07:48:04;;;;;;;1.00;0.90;;;23.60;99.90;;;;;;4183257;28;20329;-58
2023/09/03 07:50:26;;;;;;;1.02;1.02;;;23.80;99.90;;;;;;4181542;28;20044;-58
2023/09/03 07:52:46;;;;;;;1.00;0.90;;;24.10;99.90;;;;;;4183283;28;20044;-58
2023/09/03 07:55:06;;;;;;;0.90;0.90;;;24.30;99.90;;;;;;4181034;28;20131;-58
2023/09/03 07:57:30;;;;;;;2.67;0.90;;;24.30;99.90;;;;;;4173863;28;20160;-58
2023/09/03 07:59:53;;;;;;;0.90;0.90;;;24.60;99.90;;;;;;4182801;28;20051;-58
2023/09/03 08:02:13;;;;;;;;;;;24.60;99.90;;;;;;4177293;28;20080;-58
2023/09/03 08:04:33;;;;;;;1.27;0.73;;;24.50;99.90;;;;;;4184135;28;20215;-58
2023/09/03 08:06:52;;;;;;;1.05;1.05;;;24.50;99.40;;;;;;4181043;28;20041;-58
2023/09/03 08:09:13;;;;;;;0.82;0.82;;;24.50;99.90;;;;;;4178465;28;20371;-58
2023/09/03 08:11:33;;;;;;;1.75;0.90;;;24.50;99.40;;;;;;4176163;28;20244;-58
2023/09/03 08:13:58;;;;;;;1.13;1.10;;;24.60;99.60;;;;;;4180531;28;20145;-58
2023/09/03 08:16:18;;;;;;;0.90;0.90;;;24.80;99.40;;;;;;4180028;28;20362;-59
2023/09/03 08:18:38;;;;;;;0.90;0.90;;;24.90;99.50;;;;;;4175955;28;20123;-57
2023/09/03 08:20:58;;;;;;;0.90;0.90;;;25.00;99.10;;;;;;4180949;28;20036;-58
2023/09/03 08:23:18;;;;;;;0.80;0.80;;;25.00;98.40;;;;;;4183769;28;20086;-58
2023/09/03 08:25:39;;;;;;;3.30;0.90;;;25.20;98.70;;;;;;4177623;28;20410;-58
2023/09/03 08:27:59;;;;;;;0.80;0.80;;;25.40;98.10;;;;;;4177273;28;20048;-58
2023/09/03 08:30:19;;;;;;;0.80;0.80;;;25.70;97.70;;;;;;4181047;28;20052;-58
2023/09/03 08:32:39;;;;;;;1.73;0.80;;;25.90;97.80;;;;;;4179091;28;20104;-58
2023/09/03 08:34:59;;;;;;;0.80;0.80;;;26.10;97.70;;;;;;4184525;28;20052;-58
2023/09/03 08:37:20;;;;;;;0.70;0.70;;;26.40;97.10;;;;;;4183981;28;20100;-58
2023/09/03 08:39:40;;;;;;;1.15;0.80;;;26.60;95.90;;;;;;4176640;28;20047;-58
2023/09/03 08:42:00;;;;;;;5.63;1.25;;;26.90;95.90;;;;;;4181674;28;20041;-58
2023/09/03 08:44:34;;;;;;;0.80;0.80;;;27.10;96.00;;;;;;4177720;28;20060;-58
2023/09/03 08:46:59;;;;;;;0.80;0.80;;;27.30;95.60;;;;;;4178241;28;20124;-58
2023/09/03 08:49:19;;;;;;;1.60;0.70;;;27.40;95.40;;;;;;4176443;28;20044;-58
2023/09/03 08:51:39;;;;;;;0.68;0.68;;;27.60;94.60;;;;;;4175813;28;20066;-58
2023/09/03 08:54:01;;;;;;;1.30;1.05;;;27.80;94.80;;;;;;4180252;28;20334;-58
2023/09/03 08:56:22;;;;;;;0.95;0.80;;;27.90;93.70;;;;;;4179616;28;20320;-59
2023/09/03 08:58:42;;;;;;;1.42;0.60;;;28.10;94.20;;;;;;4181103;28;20280;-58
2023/09/03 09:01:04;;;;;;;3.83;0.70;;;28.10;93.80;;;;;;4185494;28;20078;-58
2023/09/03 09:03:28;;;;;;;1.07;0.77;;;28.10;94.10;;;;;;4183276;28;20079;-59
2023/09/03 09:05:49;;;;;;;1.08;0.70;;;28.20;92.90;;;;;;4182148;28;20102;-58
2023/09/03 09:08:08;;;;;;;0.70;0.70;;;28.10;92.80;;;;;;4180520;28;20366;-58
2023/09/03 09:10:33;;;;;;;1.10;0.70;;;28.20;93.40;;;;;;4182183;28;20094;-58
2023/09/03 09:13:05;;;;;;;0.93;0.77;;;28.40;93.30;;;;;;4179673;28;20071;-59
2023/09/03 09:15:25;;;;;;;1.15;1.15;;;28.50;93.40;;;;;;4174462;28;20060;-58
2023/09/03 09:17:44;;;;;;;0.60;0.60;;;28.80;94.00;;;;;;4176654;28;20039;-58
2023/09/03 09:20:06;;;;;;;3.83;3.53;;;29.00;94.60;;;;;;4178990;28;20083;-56
2023/09/03 09:22:26;;;;;;;4.55;4.15;;;29.40;93.50;;;;;;4177524;28;20089;-57
2023/09/03 09:24:46;;;;;;;0.70;0.70;;;29.70;92.60;;;;;;4177756;28;20281;-56
2023/09/03 09:27:17;;;;;;;6.95;6.55;;;29.80;94.10;;;;;;4181304;28;20048;-56
2023/09/03 09:29:37;;;;;;;1.17;1.08;;;30.00;91.70;;;;;;4180740;28;20067;-57
2023/09/03 09:31:57;;;;;;;1.67;0.70;;;30.00;91.80;;;;;;4178036;28;20076;-57
2023/09/03 09:34:18;;;;;;;1.75;0.70;;;29.80;91.80;;;;;;4176797;28;20160;-57
2023/09/03 09:36:38;;;;;;;0.70;0.70;;;29.80;93.20;;;;;;4181548;28;20048;-56
2023/09/03 09:39:06;;;;;;;2.05;1.95;;;30.10;91.90;;;;;;4174400;28;20048;-56
2023/09/03 09:41:27;;;;;;;0.85;0.85;;;30.20;91.00;;;;;;4179834;28;20105;-57
2023/09/03 09:43:46;;;;;;;0.70;0.70;;;30.30;91.20;;;;;;4183849;28;20406;-57
2023/09/03 09:46:06;;;;;;;0.57;0.57;;;30.40;90.20;;;;;;4178099;28;20047;-57
2023/09/03 09:48:26;;;;;;;0.60;0.60;;;30.20;90.60;;;;;;4180824;28;20245;-57
2023/09/03 09:50:49;;;;;;;31.85;28.80;;;30.30;81.90;;;;;;4183685;28;20047;-57
2023/09/03 09:53:22;;;;;;;1.20;1.10;;;30.50;87.30;;;;;;4180152;28;20052;-57
2023/09/03 09:55:43;;;;;;;1.75;1.65;;;30.90;87.20;;;;;;4184686;28;20172;-56
2023/09/03 09:58:03;;;;;;;6.20;5.90;;;31.00;85.20;;;;;;4181668;28;20101;-56
2023/09/03 10:00:33;;;;;;;6.15;2.10;;;31.00;82.60;;;;;;4182889;28;20103;-57
2023/09/03 10:02:56;;;;;;;2.33;2.00;;;30.90;81.10;;;;;;4182376;28;20071;-57
2023/09/03 10:05:16;;;;;;;242.05;216.93;;;30.90;81.60;;;;;;4179094;28;20094;-56
2023/09/03 10:07:38;;;;;;;8.18;7.78;;;31.20;81.90;;;;;;4176773;28;20048;-57
2023/09/03 10:10:00;;;;;;;104.85;93.05;;;31.20;78.20;;;;;;4180987;28;20083;-57
2023/09/03 10:12:20;;;;;;;;;;;31.20;79.60;;;;;;4180935;28;20075;-57
2023/09/03 10:14:40;;;;;;;97.38;87.40;;;31.20;78.90;;;;;;4179505;28;19932;-57
2023/09/03 10:17:02;;;;;;;18.65;16.83;;;31.60;80.40;;;;;;4180716;28;20056;-57
2023/09/03 10:19:26;;;;;;;0.70;0.70;;;32.00;83.00;;;;;;4176365;28;20066;-57
2023/09/03 10:21:49;;;;;;;1.35;0.73;;;32.10;78.90;;;;;;4179164;28;20305;-57
2023/09/03 10:24:16;;;;;;;0.65;0.65;;;32.30;78.00;;;;;;4175907;28;20076;-57
2023/09/03 10:26:41;;;;;;;0.63;0.50;;;32.10;76.80;;;;;;4180008;28;20266;-57
2023/09/03 10:29:05;;;;;;;1.42;0.50;;;31.90;77.50;;;;;;4176218;28;20044;-57
2023/09/03 10:31:26;;;;;;;0.50;0.50;;;32.10;77.60;;;;;;4176577;28;20040;-58
2023/09/03 10:33:46;;;;;;;0.60;0.60;;;32.50;79.80;;;;;;4178733;28;20232;-57
2023/09/03 10:36:20;;;;;;;0.80;0.52;;;32.40;77.30;;;;;;4175618;28;20041;-57
2023/09/03 10:38:41;;;;;;;0.70;0.47;;;32.60;73.90;;;;;;4179486;28;20064;-58
2023/09/03 10:41:21;;;;;;;0.50;0.50;;;32.60;72.70;;;;;;4177756;28;20040;-57
2023/09/03 10:43:45;;;;;;;0.50;0.50;;;32.80;74.70;;;;;;4185518;28;20398;-57
2023/09/03 10:46:06;;;;;;;0.40;0.40;;;32.90;72.60;;;;;;4179792;28;20320;-57
2023/09/03 10:48:27;;;;;;;0.40;0.40;;;32.60;71.10;;;;;;4179856;28;20297;-57
2023/09/03 10:50:50;;;;;;;0.57;0.57;;;32.60;70.60;;;;;;4181108;28;20306;-57
2023/09/03 10:53:40;;;;;;;0.50;0.50;;;32.40;69.80;;;;;;4181218;28;20060;-57
2023/09/03 10:56:13;;;;;;;0.63;0.50;;;32.10;72.90;;;;;;4179254;28;20052;-57
2023/09/03 10:58:34;;;;;;;0.40;0.40;;;32.10;76.70;;;;;;4186509;28;20106;-57
2023/09/03 11:01:16;;;;;;;0.60;0.50;;;32.30;73.70;;;;;;4181240;28;20108;-57
2023/09/03 11:03:48;;;;;;;0.40;0.40;;;32.40;71.70;;;;;;4182795;28;20044;-57
2023/09/03 11:06:18;;;;;;;0.53;0.50;;;32.60;71.30;;;;;;4178077;28;20044;-57
2023/09/03 11:08:39;;;;;;;0.40;0.40;;;32.70;71.60;;;;;;4181095;28;20362;-58
2023/09/03 11:10:59;;;;;;;0.50;0.50;;;33.10;70.00;;;;;;4183409;28;20055;-57
2023/09/03 11:13:19;;;;;;;0.50;0.50;;;32.90;70.20;;;;;;4176861;28;20045;-57
2023/09/03 11:15:57;;;;;;;0.40;0.40;;;32.90;69.80;;;;;;4180020;28;20044;-56
2023/09/03 11:18:19;;;;;;;0.63;0.40;;;33.00;71.20;;;;;;4174465;28;20075;-57
2023/09/03 11:20:39;;;;;;;0.40;0.40;;;33.00;73.50;;;;;;4179471;28;20056;-57
2023/09/03 11:23:11;;;;;;;0.45;0.45;;;32.90;69.60;;;;;;4179501;28;20283;-57
2023/09/03 11:25:35;;;;;;;0.50;0.50;;;33.00;67.90;;;;;;4182435;28;20048;-57
2023/09/03 11:27:55;;;;;;;0.40;0.40;;;33.10;71.70;;;;;;4184852;28;20055;-57
2023/09/03 11:30:16;;;;;;;4.22;0.47;;;33.10;68.40;;;;;;4186287;28;20078;-57
2023/09/03 11:32:39;;;;;;;0.40;0.40;;;33.00;68.30;;;;;;4182296;28;20268;-57
2023/09/03 11:34:59;;;;;;;0.60;0.40;;;33.10;69.50;;;;;;4179342;28;20075;-57
2023/09/03 11:37:19;;;;;;;0.40;0.40;;;33.30;71.20;;;;;;4178923;28;20256;-57
2023/09/03 11:39:39;;;;;;;1.17;0.40;;;33.60;71.30;;;;;;4176403;28;20060;-57
2023/09/03 11:41:59;;;;;;;0.40;0.40;;;33.50;67.60;;;;;;4182286;28;20045;-57
2023/09/03 11:44:20;;;;;;;0.47;0.40;;;34.10;69.90;;;;;;4175358;28;20255;-57
2023/09/03 11:46:54;;;;;;;0.53;0.50;;;34.40;69.90;;;;;;4177092;28;20060;-57
2023/09/03 11:49:21;;;;;;;1.08;0.32;;;34.30;65.80;;;;;;4181370;28;20271;-57
2023/09/03 11:51:41;;;;;;;0.40;0.40;;;33.80;66.00;;;;;;4182083;28;20047;-58
2023/09/03 11:54:01;;;;;;;0.40;0.40;;;33.50;65.30;;;;;;4183430;28;20051;-57
2023/09/03 11:56:22;;;;;;;0.40;0.40;;;33.10;66.40;;;;;;4183553;28;20068;-57
2023/09/03 11:58:45;;;;;;;0.40;0.40;;;33.40;67.30;;;;;;4187005;28;20051;-57
2023/09/03 12:01:06;;;;;;;0.40;0.40;;;33.50;67.20;;;;;;4180418;28;20068;-58
2023/09/03 12:03:26;;;;;;;0.40;0.40;;;34.10;69.70;;;;;;4181037;28;20068;-57
2023/09/03 12:05:47;;;;;;;0.70;0.50;;;33.90;65.50;;;;;;4181932;28;20308;-57
2023/09/03 12:08:07;;;;;;;0.40;0.40;;;33.80;67.00;;;;;;4177821;28;20260;-57
2023/09/03 12:10:27;;;;;;;1.20;0.50;;;34.10;68.80;;;;;;4181527;28;20052;-58
2023/09/03 12:12:47;;;;;;;0.50;0.50;;;34.30;64.10;;;;;;4177227;28;20072;-57
2023/09/03 12:15:21;;;;;;;0.60;0.60;;;34.00;63.60;;;;;;4180983;28;20067;-57
2023/09/03 12:17:40;;;;;;;1.38;0.40;;;33.30;65.90;;;;;;4179490;28;20048;-57
2023/09/03 12:20:00;;;;;;;0.40;0.30;;;33.10;68.30;;;;;;4184899;28;20048;-57